sensor_id;sensor_type;location;lat;lon;timestamp;temperature;humidity
68813;DHT22;55808;48.112;11.552;2023-01-31T00:01:20;2.00;94.20
68813;DHT22;55808;48.112;11.552;2023-01-31T00:03:57;2.00;94.30
68813;DHT22;55808;48.112;11.552;2023-01-31T00:06:25;2.00;94.40
68813;DHT22;55808;48.112;11.552;2023-01-31T00:12:08;2.00;94.30
68813;DHT22;55808;48.112;11.552;2023-01-31T00:14:33;1.90;94.40
68813;DHT22;55808;48.112;11.552;2023-01-31T00:16:59;2.00;94.40
68813;DHT22;55808;48.112;11.552;2023-01-31T00:19:24;2.00;94.50
68813;DHT22;55808;48.112;11.552;2023-01-31T00:21:50;2.00;94.50
68813;DHT22;55808;48.112;11.552;2023-01-31T00:24:17;2.00;94.60
68813;DHT22;55808;48.112;11.552;2023-01-31T00:26:43;2.00;94.50
68813;DHT22;55808;48.112;11.552;2023-01-31T00:29:09;2.00;94.50
68813;DHT22;55808;48.112;11.552;2023-01-31T00:31:34;2.00;94.50
68813;DHT22;55808;48.112;11.552;2023-01-31T00:34:00;2.00;94.70
68813;DHT22;55808;48.112;11.552;2023-01-31T00:36:28;2.00;94.50
68813;DHT22;55808;48.112;11.552;2023-01-31T00:38:57;2.00;94.60
68813;DHT22;55808;48.112;11.552;2023-01-31T00:41:24;2.00;94.60
68813;DHT22;55808;48.112;11.552;2023-01-31T00:43:50;2.00;94.60
68813;DHT22;55808;48.112;11.552;2023-01-31T00:46:17;1.90;94.80
68813;DHT22;55808;48.112;11.552;2023-01-31T00:48:44;2.00;94.80
68813;DHT22;55808;48.112;11.552;2023-01-31T00:51:10;1.90;94.80
68813;DHT22;55808;48.112;11.552;2023-01-31T00:53:36;1.90;94.90
68813;DHT22;55808;48.112;11.552;2023-01-31T00:56:09;2.00;94.90
68813;DHT22;55808;48.112;11.552;2023-01-31T00:58:36;1.90;94.90
68813;DHT22;55808;48.112;11.552;2023-01-31T01:01:10;1.90;94.80
68813;DHT22;55808;48.112;11.552;2023-01-31T01:03:36;1.90;94.80
68813;DHT22;55808;48.112;11.552;2023-01-31T01:06:03;1.90;95.00
68813;DHT22;55808;48.112;11.552;2023-01-31T01:08:29;1.90;95.00
68813;DHT22;55808;48.112;11.552;2023-01-31T01:10:56;1.90;94.80
68813;DHT22;55808;48.112;11.552;2023-01-31T01:13:21;1.90;94.90
68813;DHT22;55808;48.112;11.552;2023-01-31T01:15:47;1.90;95.20
68813;DHT22;55808;48.112;11.552;2023-01-31T01:18:13;1.90;95.10
68813;DHT22;55808;48.112;11.552;2023-01-31T01:20:38;1.90;95.10
68813;DHT22;55808;48.112;11.552;2023-01-31T01:23:04;1.90;95.20
68813;DHT22;55808;48.112;11.552;2023-01-31T01:25:30;1.90;95.00
68813;DHT22;55808;48.112;11.552;2023-01-31T01:27:55;1.90;95.10
68813;DHT22;55808;48.112;11.552;2023-01-31T01:30:21;1.80;95.10
68813;DHT22;55808;48.112;11.552;2023-01-31T01:32:47;1.90;95.00
68813;DHT22;55808;48.112;11.552;2023-01-31T01:35:13;1.80;95.10
68813;DHT22;55808;48.112;11.552;2023-01-31T01:37:39;1.90;95.10
68813;DHT22;55808;48.112;11.552;2023-01-31T01:40:05;1.90;95.20
68813;DHT22;55808;48.112;11.552;2023-01-31T01:42:34;1.90;95.10
68813;DHT22;55808;48.112;11.552;2023-01-31T01:45:01;1.90;94.90
68813;DHT22;55808;48.112;11.552;2023-01-31T01:53:17;1.80;95.00
68813;DHT22;55808;48.112;11.552;2023-01-31T01:55:50;1.80;94.80
68813;DHT22;55808;48.112;11.552;2023-01-31T01:58:23;1.90;94.70
68813;DHT22;55808;48.112;11.552;2023-01-31T02:00:49;1.80;94.90
68813;DHT22;55808;48.112;11.552;2023-01-31T02:03:15;1.80;95.20
68813;DHT22;55808;48.112;11.552;2023-01-31T02:05:51;1.80;95.10
68813;DHT22;55808;48.112;11.552;2023-01-31T02:08:21;1.80;95.10
68813;DHT22;55808;48.112;11.552;2023-01-31T02:10:54;1.80;95.30
68813;DHT22;55808;48.112;11.552;2023-01-31T02:13:21;1.80;95.30
68813;DHT22;55808;48.112;11.552;2023-01-31T02:15:47;1.70;95.30
68813;DHT22;55808;48.112;11.552;2023-01-31T02:18:13;1.80;95.30
68813;DHT22;55808;48.112;11.552;2023-01-31T02:21:14;1.70;95.30
68813;DHT22;55808;48.112;11.552;2023-01-31T02:26:50;1.70;95.50
68813;DHT22;55808;48.112;11.552;2023-01-31T02:38:02;1.70;95.40
68813;DHT22;55808;48.112;11.552;2023-01-31T02:40:42;1.70;95.50
68813;DHT22;55808;48.112;11.552;2023-01-31T02:43:28;1.70;95.60
68813;DHT22;55808;48.112;11.552;2023-01-31T02:46:01;1.60;95.40
68813;DHT22;55808;48.112;11.552;2023-01-31T02:53:36;1.60;95.40
68813;DHT22;55808;48.112;11.552;2023-01-31T02:56:09;1.60;95.30
68813;DHT22;55808;48.112;11.552;2023-01-31T02:58:41;1.60;95.40
68813;DHT22;55808;48.112;11.552;2023-01-31T03:01:14;1.60;95.40
68813;DHT22;55808;48.112;11.552;2023-01-31T03:03:42;1.60;95.60
68813;DHT22;55808;48.112;11.552;2023-01-31T03:14:32;1.50;95.40
68813;DHT22;55808;48.112;11.552;2023-01-31T03:20:09;1.50;95.70
68813;DHT22;55808;48.112;11.552;2023-01-31T03:22:42;1.50;95.40
68813;DHT22;55808;48.112;11.552;2023-01-31T03:25:11;1.50;95.10
68813;DHT22;55808;48.112;11.552;2023-01-31T03:27:39;1.50;95.10
68813;DHT22;55808;48.112;11.552;2023-01-31T03:30:11;1.50;95.20
68813;DHT22;55808;48.112;11.552;2023-01-31T03:32:44;1.50;95.30
68813;DHT22;55808;48.112;11.552;2023-01-31T03:35:11;1.40;95.20
68813;DHT22;55808;48.112;11.552;2023-01-31T03:37:51;1.70;95.40
68813;DHT22;55808;48.112;11.552;2023-01-31T03:40:47;1.40;95.20
68813;DHT22;55808;48.112;11.552;2023-01-31T03:46:01;1.30;95.30
68813;DHT22;55808;48.112;11.552;2023-01-31T03:48:32;1.30;95.50
68813;DHT22;55808;48.112;11.552;2023-01-31T03:51:05;1.30;95.50
68813;DHT22;55808;48.112;11.552;2023-01-31T03:56:07;1.20;95.80
68813;DHT22;55808;48.112;11.552;2023-01-31T03:58:40;1.10;95.80
68813;DHT22;55808;48.112;11.552;2023-01-31T04:01:08;1.10;95.80
68813;DHT22;55808;48.112;11.552;2023-01-31T04:03:39;1.10;95.80
68813;DHT22;55808;48.112;11.552;2023-01-31T04:06:08;1.10;95.70
68813;DHT22;55808;48.112;11.552;2023-01-31T04:08:35;1.10;95.70
68813;DHT22;55808;48.112;11.552;2023-01-31T04:11:07;1.00;96.10
68813;DHT22;55808;48.112;11.552;2023-01-31T04:13:34;1.00;95.80
68813;DHT22;55808;48.112;11.552;2023-01-31T04:15:59;1.10;95.80
68813;DHT22;55808;48.112;11.552;2023-01-31T04:18:25;1.10;95.70
68813;DHT22;55808;48.112;11.552;2023-01-31T04:20:51;1.10;95.70
68813;DHT22;55808;48.112;11.552;2023-01-31T04:23:16;1.00;95.70
68813;DHT22;55808;48.112;11.552;2023-01-31T04:25:43;1.00;95.70
68813;DHT22;55808;48.112;11.552;2023-01-31T04:28:09;1.00;95.70
68813;DHT22;55808;48.112;11.552;2023-01-31T04:30:35;1.10;95.80
68813;DHT22;55808;48.112;11.552;2023-01-31T04:33:00;1.00;95.50
68813;DHT22;55808;48.112;11.552;2023-01-31T04:35:26;1.00;95.60
68813;DHT22;55808;48.112;11.552;2023-01-31T04:37:51;1.10;95.60
68813;DHT22;55808;48.112;11.552;2023-01-31T04:40:17;1.00;95.50
68813;DHT22;55808;48.112;11.552;2023-01-31T04:42:43;1.00;95.40
68813;DHT22;55808;48.112;11.552;2023-01-31T04:45:09;1.10;95.40
68813;DHT22;55808;48.112;11.552;2023-01-31T04:47:35;1.10;95.30
68813;DHT22;55808;48.112;11.552;2023-01-31T04:50:00;1.10;95.30
68813;DHT22;55808;48.112;11.552;2023-01-31T04:52:26;1.10;95.10
68813;DHT22;55808;48.112;11.552;2023-01-31T04:54:52;1.10;95.10
68813;DHT22;55808;48.112;11.552;2023-01-31T04:57:17;1.10;95.30
68813;DHT22;55808;48.112;11.552;2023-01-31T04:59:43;1.10;95.10
68813;DHT22;55808;48.112;11.552;2023-01-31T05:02:08;1.10;95.30
68813;DHT22;55808;48.112;11.552;2023-01-31T05:04:34;1.10;95.10
68813;DHT22;55808;48.112;11.552;2023-01-31T05:07:00;1.10;95.30
68813;DHT22;55808;48.112;11.552;2023-01-31T05:09:25;1.10;95.70
68813;DHT22;55808;48.112;11.552;2023-01-31T05:11:51;1.10;95.50
68813;DHT22;55808;48.112;11.552;2023-01-31T05:14:16;1.10;95.40
68813;DHT22;55808;48.112;11.552;2023-01-31T05:16:42;1.00;95.30
68813;DHT22;55808;48.112;11.552;2023-01-31T05:19:14;1.00;95.30
68813;DHT22;55808;48.112;11.552;2023-01-31T05:21:40;1.00;95.30
68813;DHT22;55808;48.112;11.552;2023-01-31T05:24:28;1.00;95.40
68813;DHT22;55808;48.112;11.552;2023-01-31T05:26:55;1.00;95.40
68813;DHT22;55808;48.112;11.552;2023-01-31T05:29:27;1.00;95.50
68813;DHT22;55808;48.112;11.552;2023-01-31T05:31:54;1.00;95.50
68813;DHT22;55808;48.112;11.552;2023-01-31T05:34:20;1.00;95.40
68813;DHT22;55808;48.112;11.552;2023-01-31T05:36:46;1.00;95.40
68813;DHT22;55808;48.112;11.552;2023-01-31T05:39:12;1.00;95.50
68813;DHT22;55808;48.112;11.552;2023-01-31T05:41:37;1.00;95.30
68813;DHT22;55808;48.112;11.552;2023-01-31T05:44:03;1.00;95.20
68813;DHT22;55808;48.112;11.552;2023-01-31T05:46:29;1.00;95.40
68813;DHT22;55808;48.112;11.552;2023-01-31T05:48:55;1.00;95.30
68813;DHT22;55808;48.112;11.552;2023-01-31T05:51:20;1.00;95.30
68813;DHT22;55808;48.112;11.552;2023-01-31T05:53:46;1.00;95.20
68813;DHT22;55808;48.112;11.552;2023-01-31T05:56:13;1.00;95.20
68813;DHT22;55808;48.112;11.552;2023-01-31T05:58:39;0.90;95.00
68813;DHT22;55808;48.112;11.552;2023-01-31T06:01:04;1.00;95.20
68813;DHT22;55808;48.112;11.552;2023-01-31T06:03:30;0.90;95.10
68813;DHT22;55808;48.112;11.552;2023-01-31T06:05:56;0.90;95.20
68813;DHT22;55808;48.112;11.552;2023-01-31T06:08:21;0.90;95.10
68813;DHT22;55808;48.112;11.552;2023-01-31T06:10:47;0.90;95.10
68813;DHT22;55808;48.112;11.552;2023-01-31T06:13:12;0.90;95.00
68813;DHT22;55808;48.112;11.552;2023-01-31T06:15:44;0.90;95.00
68813;DHT22;55808;48.112;11.552;2023-01-31T06:18:11;0.90;95.00
68813;DHT22;55808;48.112;11.552;2023-01-31T06:20:37;0.90;95.10
68813;DHT22;55808;48.112;11.552;2023-01-31T06:23:03;1.00;94.70
68813;DHT22;55808;48.112;11.552;2023-01-31T06:25:29;1.00;94.90
68813;DHT22;55808;48.112;11.552;2023-01-31T06:27:55;1.00;94.70
68813;DHT22;55808;48.112;11.552;2023-01-31T06:30:21;1.00;94.70
68813;DHT22;55808;48.112;11.552;2023-01-31T06:32:47;1.00;94.80
68813;DHT22;55808;48.112;11.552;2023-01-31T06:35:13;1.00;94.60
68813;DHT22;55808;48.112;11.552;2023-01-31T06:37:39;1.00;94.70
68813;DHT22;55808;48.112;11.552;2023-01-31T06:40:05;1.00;94.60
68813;DHT22;55808;48.112;11.552;2023-01-31T06:42:31;1.00;94.50
68813;DHT22;55808;48.112;11.552;2023-01-31T06:44:56;0.90;94.30
68813;DHT22;55808;48.112;11.552;2023-01-31T06:47:22;1.00;94.50
68813;DHT22;55808;48.112;11.552;2023-01-31T06:49:48;0.90;94.40
68813;DHT22;55808;48.112;11.552;2023-01-31T06:52:14;1.00;94.40
68813;DHT22;55808;48.112;11.552;2023-01-31T06:54:39;1.00;94.20
68813;DHT22;55808;48.112;11.552;2023-01-31T06:57:05;0.90;94.30
68813;DHT22;55808;48.112;11.552;2023-01-31T06:59:31;0.90;94.20
68813;DHT22;55808;48.112;11.552;2023-01-31T07:01:57;0.90;94.60
68813;DHT22;55808;48.112;11.552;2023-01-31T07:04:24;1.00;94.20
68813;DHT22;55808;48.112;11.552;2023-01-31T07:06:49;0.90;94.10
68813;DHT22;55808;48.112;11.552;2023-01-31T07:09:15;0.90;94.00
68813;DHT22;55808;48.112;11.552;2023-01-31T07:11:41;0.90;93.90
68813;DHT22;55808;48.112;11.552;2023-01-31T07:14:07;0.90;94.10
68813;DHT22;55808;48.112;11.552;2023-01-31T07:16:32;0.80;93.90
68813;DHT22;55808;48.112;11.552;2023-01-31T07:18:58;0.80;94.00
68813;DHT22;55808;48.112;11.552;2023-01-31T07:21:24;0.80;94.10
68813;DHT22;55808;48.112;11.552;2023-01-31T07:23:51;0.80;94.00
68813;DHT22;55808;48.112;11.552;2023-01-31T07:26:16;1.20;93.60
68813;DHT22;55808;48.112;11.552;2023-01-31T07:28:42;1.30;93.40
68813;DHT22;55808;48.112;11.552;2023-01-31T07:31:10;1.50;93.20
68813;DHT22;55808;48.112;11.552;2023-01-31T07:33:37;1.70;92.80
68813;DHT22;55808;48.112;11.552;2023-01-31T07:36:04;1.50;93.00
68813;DHT22;55808;48.112;11.552;2023-01-31T07:38:31;1.20;93.00
68813;DHT22;55808;48.112;11.552;2023-01-31T07:41:01;1.10;93.40
68813;DHT22;55808;48.112;11.552;2023-01-31T07:43:27;1.10;93.40
68813;DHT22;55808;48.112;11.552;2023-01-31T07:45:53;1.10;93.60
68813;DHT22;55808;48.112;11.552;2023-01-31T07:48:19;1.10;93.50
68813;DHT22;55808;48.112;11.552;2023-01-31T07:50:53;1.10;93.40
68813;DHT22;55808;48.112;11.552;2023-01-31T07:53:22;1.00;93.50
68813;DHT22;55808;48.112;11.552;2023-01-31T07:55:47;1.00;93.70
68813;DHT22;55808;48.112;11.552;2023-01-31T07:58:14;1.00;93.50
68813;DHT22;55808;48.112;11.552;2023-01-31T08:00:41;0.90;93.40
68813;DHT22;55808;48.112;11.552;2023-01-31T08:03:27;0.90;93.50
68813;DHT22;55808;48.112;11.552;2023-01-31T08:06:11;1.00;93.60
68813;DHT22;55808;48.112;11.552;2023-01-31T08:08:38;0.90;93.70
68813;DHT22;55808;48.112;11.552;2023-01-31T08:11:04;0.90;93.50
68813;DHT22;55808;48.112;11.552;2023-01-31T08:13:31;1.00;93.50
68813;DHT22;55808;48.112;11.552;2023-01-31T08:15:57;1.00;93.40
68813;DHT22;55808;48.112;11.552;2023-01-31T08:18:22;1.00;93.60
68813;DHT22;55808;48.112;11.552;2023-01-31T08:20:48;1.00;93.30
68813;DHT22;55808;48.112;11.552;2023-01-31T08:23:14;1.00;93.30
68813;DHT22;55808;48.112;11.552;2023-01-31T08:25:39;1.10;93.30
68813;DHT22;55808;48.112;11.552;2023-01-31T08:28:05;1.10;93.10
68813;DHT22;55808;48.112;11.552;2023-01-31T08:30:31;1.10;93.30
68813;DHT22;55808;48.112;11.552;2023-01-31T08:32:56;1.10;93.20
68813;DHT22;55808;48.112;11.552;2023-01-31T08:35:24;1.20;93.10
68813;DHT22;55808;48.112;11.552;2023-01-31T08:37:50;1.20;92.90
68813;DHT22;55808;48.112;11.552;2023-01-31T08:40:16;1.20;93.00
68813;DHT22;55808;48.112;11.552;2023-01-31T08:42:42;1.20;92.80
68813;DHT22;55808;48.112;11.552;2023-01-31T08:45:08;1.10;92.80
68813;DHT22;55808;48.112;11.552;2023-01-31T08:47:34;1.20;92.90
68813;DHT22;55808;48.112;11.552;2023-01-31T08:50:02;1.20;92.90
68813;DHT22;55808;48.112;11.552;2023-01-31T08:52:28;1.30;93.00
68813;DHT22;55808;48.112;11.552;2023-01-31T08:54:53;1.30;92.90
68813;DHT22;55808;48.112;11.552;2023-01-31T08:57:19;1.30;92.80
68813;DHT22;55808;48.112;11.552;2023-01-31T08:59:45;1.30;92.60
68813;DHT22;55808;48.112;11.552;2023-01-31T09:02:11;1.40;92.60
68813;DHT22;55808;48.112;11.552;2023-01-31T09:04:36;1.40;92.60
68813;DHT22;55808;48.112;11.552;2023-01-31T09:07:02;1.40;92.60
68813;DHT22;55808;48.112;11.552;2023-01-31T09:09:27;1.50;92.30
68813;DHT22;55808;48.112;11.552;2023-01-31T09:11:53;1.60;92.00
68813;DHT22;55808;48.112;11.552;2023-01-31T09:14:19;1.70;91.50
68813;DHT22;55808;48.112;11.552;2023-01-31T09:16:44;1.70;91.50
68813;DHT22;55808;48.112;11.552;2023-01-31T09:19:11;1.80;91.50
68813;DHT22;55808;48.112;11.552;2023-01-31T09:21:37;1.80;91.20
68813;DHT22;55808;48.112;11.552;2023-01-31T09:24:02;1.90;91.20
68813;DHT22;55808;48.112;11.552;2023-01-31T09:26:29;1.90;91.20
68813;DHT22;55808;48.112;11.552;2023-01-31T09:28:56;1.90;90.80
68813;DHT22;55808;48.112;11.552;2023-01-31T09:31:22;2.00;90.80
68813;DHT22;55808;48.112;11.552;2023-01-31T09:33:49;2.00;90.60
68813;DHT22;55808;48.112;11.552;2023-01-31T09:36:18;2.10;90.10
68813;DHT22;55808;48.112;11.552;2023-01-31T09:38:44;2.10;90.30
68813;DHT22;55808;48.112;11.552;2023-01-31T09:41:31;2.10;90.00
68813;DHT22;55808;48.112;11.552;2023-01-31T09:44:06;2.20;90.10
68813;DHT22;55808;48.112;11.552;2023-01-31T09:46:43;2.20;89.90
68813;DHT22;55808;48.112;11.552;2023-01-31T09:49:22;2.30;89.50
68813;DHT22;55808;48.112;11.552;2023-01-31T09:51:57;2.20;89.60
68813;DHT22;55808;48.112;11.552;2023-01-31T09:54:32;2.30;90.00
68813;DHT22;55808;48.112;11.552;2023-01-31T10:00:21;2.40;89.30
68813;DHT22;55808;48.112;11.552;2023-01-31T10:06:14;2.50;89.40
68813;DHT22;55808;48.112;11.552;2023-01-31T10:08:50;2.30;88.50
68813;DHT22;55808;48.112;11.552;2023-01-31T10:11:31;2.40;88.40
68813;DHT22;55808;48.112;11.552;2023-01-31T10:17:04;2.60;86.80
68813;DHT22;55808;48.112;11.552;2023-01-31T10:22:49;2.80;84.10
68813;DHT22;55808;48.112;11.552;2023-01-31T10:25:26;2.90;85.50
68813;DHT22;55808;48.112;11.552;2023-01-31T10:28:13;2.80;84.30
68813;DHT22;55808;48.112;11.552;2023-01-31T10:30:53;2.90;84.90
68813;DHT22;55808;48.112;11.552;2023-01-31T10:33:50;2.90;84.50
68813;DHT22;55808;48.112;11.552;2023-01-31T10:36:37;2.80;84.90
68813;DHT22;55808;48.112;11.552;2023-01-31T10:44:39;2.80;85.70
68813;DHT22;55808;48.112;11.552;2023-01-31T10:47:13;2.70;86.10
68813;DHT22;55808;48.112;11.552;2023-01-31T10:49:43;2.70;86.50
68813;DHT22;55808;48.112;11.552;2023-01-31T10:55:27;2.60;87.00
68813;DHT22;55808;48.112;11.552;2023-01-31T10:57:56;2.60;86.90
68813;DHT22;55808;48.112;11.552;2023-01-31T11:00:26;2.60;87.20
68813;DHT22;55808;48.112;11.552;2023-01-31T11:02:53;2.50;86.60
68813;DHT22;55808;48.112;11.552;2023-01-31T11:05:22;2.50;86.70
68813;DHT22;55808;48.112;11.552;2023-01-31T11:07:48;2.60;86.80
68813;DHT22;55808;48.112;11.552;2023-01-31T11:13:01;2.60;86.70
68813;DHT22;55808;48.112;11.552;2023-01-31T11:15:34;2.80;87.50
68813;DHT22;55808;48.112;11.552;2023-01-31T11:18:00;2.60;87.30
68813;DHT22;55808;48.112;11.552;2023-01-31T11:20:30;2.50;87.50
68813;DHT22;55808;48.112;11.552;2023-01-31T11:22:58;2.50;87.90
68813;DHT22;55808;48.112;11.552;2023-01-31T11:25:26;2.50;87.90
68813;DHT22;55808;48.112;11.552;2023-01-31T11:27:56;2.50;88.10
68813;DHT22;55808;48.112;11.552;2023-01-31T11:30:35;2.70;88.60
68813;DHT22;55808;48.112;11.552;2023-01-31T11:33:02;2.60;88.40
68813;DHT22;55808;48.112;11.552;2023-01-31T11:35:31;2.50;88.10
68813;DHT22;55808;48.112;11.552;2023-01-31T11:38:15;2.60;88.80
68813;DHT22;55808;48.112;11.552;2023-01-31T11:40:48;2.70;88.80
68813;DHT22;55808;48.112;11.552;2023-01-31T11:43:22;2.70;88.60
68813;DHT22;55808;48.112;11.552;2023-01-31T11:46:14;2.80;88.70
68813;DHT22;55808;48.112;11.552;2023-01-31T11:48:42;2.70;89.00
68813;DHT22;55808;48.112;11.552;2023-01-31T11:51:10;2.80;89.00
68813;DHT22;55808;48.112;11.552;2023-01-31T11:53:49;2.70;88.90
68813;DHT22;55808;48.112;11.552;2023-01-31T11:56:29;3.00;88.80
68813;DHT22;55808;48.112;11.552;2023-01-31T11:59:02;2.90;88.50
68813;DHT22;55808;48.112;11.552;2023-01-31T12:01:32;2.90;88.90
68813;DHT22;55808;48.112;11.552;2023-01-31T12:04:03;3.00;88.50
68813;DHT22;55808;48.112;11.552;2023-01-31T12:06:40;3.00;87.50
68813;DHT22;55808;48.112;11.552;2023-01-31T12:09:22;3.00;88.10
68813;DHT22;55808;48.112;11.552;2023-01-31T12:11:56;3.10;88.40
68813;DHT22;55808;48.112;11.552;2023-01-31T12:14:23;3.30;87.10
68813;DHT22;55808;48.112;11.552;2023-01-31T12:16:54;3.10;86.80
68813;DHT22;55808;48.112;11.552;2023-01-31T12:19:37;3.00;87.50
68813;DHT22;55808;48.112;11.552;2023-01-31T12:25:20;3.00;86.50
68813;DHT22;55808;48.112;11.552;2023-01-31T12:31:04;2.90;87.30
68813;DHT22;55808;48.112;11.552;2023-01-31T12:34:21;2.80;87.30
68813;DHT22;55808;48.112;11.552;2023-01-31T12:43:01;3.00;87.30
68813;DHT22;55808;48.112;11.552;2023-01-31T12:45:41;2.90;87.40
68813;DHT22;55808;48.112;11.552;2023-01-31T12:48:13;3.00;88.20
68813;DHT22;55808;48.112;11.552;2023-01-31T12:50:56;2.90;88.10
68813;DHT22;55808;48.112;11.552;2023-01-31T13:06:52;3.70;86.80
68813;DHT22;55808;48.112;11.552;2023-01-31T13:09:32;3.90;85.50
68813;DHT22;55808;48.112;11.552;2023-01-31T13:14:51;3.90;85.30
68813;DHT22;55808;48.112;11.552;2023-01-31T13:17:23;4.00;84.90
68813;DHT22;55808;48.112;11.552;2023-01-31T13:20:03;4.40;83.70
68813;DHT22;55808;48.112;11.552;2023-01-31T13:22:45;4.80;82.60
68813;DHT22;55808;48.112;11.552;2023-01-31T13:25:34;5.10;81.00
68813;DHT22;55808;48.112;11.552;2023-01-31T13:28:05;5.40;79.00
68813;DHT22;55808;48.112;11.552;2023-01-31T13:30:40;5.00;80.60
68813;DHT22;55808;48.112;11.552;2023-01-31T13:35:50;3.90;84.10
68813;DHT22;55808;48.112;11.552;2023-01-31T13:38:19;3.90;84.10
68813;DHT22;55808;48.112;11.552;2023-01-31T13:40:54;3.80;84.80
68813;DHT22;55808;48.112;11.552;2023-01-31T13:43:21;3.60;85.10
68813;DHT22;55808;48.112;11.552;2023-01-31T13:45:57;3.50;85.20
68813;DHT22;55808;48.112;11.552;2023-01-31T13:48:33;3.40;85.60
68813;DHT22;55808;48.112;11.552;2023-01-31T13:51:17;3.30;86.00
68813;DHT22;55808;48.112;11.552;2023-01-31T13:53:57;3.30;86.50
68813;DHT22;55808;48.112;11.552;2023-01-31T13:56:28;3.40;87.20
68813;DHT22;55808;48.112;11.552;2023-01-31T13:58:56;3.30;86.20
68813;DHT22;55808;48.112;11.552;2023-01-31T14:01:24;3.30;86.50
68813;DHT22;55808;48.112;11.552;2023-01-31T14:09:33;3.20;86.80
68813;DHT22;55808;48.112;11.552;2023-01-31T14:17:12;3.30;86.80
68813;DHT22;55808;48.112;11.552;2023-01-31T14:22:29;3.20;86.60
68813;DHT22;55808;48.112;11.552;2023-01-31T14:24:58;3.20;86.30
68813;DHT22;55808;48.112;11.552;2023-01-31T14:38:16;3.30;85.60
68813;DHT22;55808;48.112;11.552;2023-01-31T14:43:51;3.30;83.70
68813;DHT22;55808;48.112;11.552;2023-01-31T14:46:34;3.30;83.80
68813;DHT22;55808;48.112;11.552;2023-01-31T14:49:17;3.30;84.20
68813;DHT22;55808;48.112;11.552;2023-01-31T14:57:55;3.30;83.60
68813;DHT22;55808;48.112;11.552;2023-01-31T15:00:24;3.30;83.50
68813;DHT22;55808;48.112;11.552;2023-01-31T15:05:53;3.30;82.90
68813;DHT22;55808;48.112;11.552;2023-01-31T15:13:47;3.30;83.20
68813;DHT22;55808;48.112;11.552;2023-01-31T15:19:05;3.30;83.40
68813;DHT22;55808;48.112;11.552;2023-01-31T15:21:56;3.30;83.60
68813;DHT22;55808;48.112;11.552;2023-01-31T15:24:32;3.20;83.40
68813;DHT22;55808;48.112;11.552;2023-01-31T15:27:05;3.30;83.90
68813;DHT22;55808;48.112;11.552;2023-01-31T15:32:39;3.30;83.70
68813;DHT22;55808;48.112;11.552;2023-01-31T15:35:28;3.30;84.10
68813;DHT22;55808;48.112;11.552;2023-01-31T15:37:58;3.30;84.00
68813;DHT22;55808;48.112;11.552;2023-01-31T15:40:26;3.20;84.20
68813;DHT22;55808;48.112;11.552;2023-01-31T15:43:15;3.30;84.30
68813;DHT22;55808;48.112;11.552;2023-01-31T15:45:40;3.40;84.20
68813;DHT22;55808;48.112;11.552;2023-01-31T15:48:14;3.20;83.70
68813;DHT22;55808;48.112;11.552;2023-01-31T15:51:16;3.20;83.50
68813;DHT22;55808;48.112;11.552;2023-01-31T15:53:43;3.20;83.70
68813;DHT22;55808;48.112;11.552;2023-01-31T15:56:27;3.20;84.10
68813;DHT22;55808;48.112;11.552;2023-01-31T15:58:55;3.20;84.10
68813;DHT22;55808;48.112;11.552;2023-01-31T16:01:21;3.20;83.90
68813;DHT22;55808;48.112;11.552;2023-01-31T16:03:53;3.20;83.80
68813;DHT22;55808;48.112;11.552;2023-01-31T16:06:25;3.20;83.70
68813;DHT22;55808;48.112;11.552;2023-01-31T16:08:55;3.20;84.20
68813;DHT22;55808;48.112;11.552;2023-01-31T16:11:21;3.20;83.30
68813;DHT22;55808;48.112;11.552;2023-01-31T16:13:48;3.20;83.00
68813;DHT22;55808;48.112;11.552;2023-01-31T16:16:14;3.20;83.20
68813;DHT22;55808;48.112;11.552;2023-01-31T16:18:44;3.20;83.40
68813;DHT22;55808;48.112;11.552;2023-01-31T16:21:30;3.20;83.50
68813;DHT22;55808;48.112;11.552;2023-01-31T16:26:30;3.30;83.20
68813;DHT22;55808;48.112;11.552;2023-01-31T16:29:00;3.30;82.90
68813;DHT22;55808;48.112;11.552;2023-01-31T16:31:33;3.30;82.90
68813;DHT22;55808;48.112;11.552;2023-01-31T16:34:01;3.20;83.50
68813;DHT22;55808;48.112;11.552;2023-01-31T16:36:59;3.30;83.20
68813;DHT22;55808;48.112;11.552;2023-01-31T16:39:46;3.30;83.10
68813;DHT22;55808;48.112;11.552;2023-01-31T16:44:49;3.40;82.90
68813;DHT22;55808;48.112;11.552;2023-01-31T16:52:47;3.30;83.10
68813;DHT22;55808;48.112;11.552;2023-01-31T16:55:18;3.30;83.40
68813;DHT22;55808;48.112;11.552;2023-01-31T16:57:44;3.30;83.30
68813;DHT22;55808;48.112;11.552;2023-01-31T17:02:50;3.40;83.30
68813;DHT22;55808;48.112;11.552;2023-01-31T17:05:21;3.30;83.40
68813;DHT22;55808;48.112;11.552;2023-01-31T17:07:49;3.40;83.60
68813;DHT22;55808;48.112;11.552;2023-01-31T17:10:34;3.30;83.70
68813;DHT22;55808;48.112;11.552;2023-01-31T17:13:06;3.30;83.80
68813;DHT22;55808;48.112;11.552;2023-01-31T17:15:35;3.40;83.90
68813;DHT22;55808;48.112;11.552;2023-01-31T17:18:01;3.60;84.00
68813;DHT22;55808;48.112;11.552;2023-01-31T17:20:26;3.60;82.90
68813;DHT22;55808;48.112;11.552;2023-01-31T17:22:52;3.40;83.40
68813;DHT22;55808;48.112;11.552;2023-01-31T17:25:21;3.40;83.30
68813;DHT22;55808;48.112;11.552;2023-01-31T17:27:48;3.40;83.30
68813;DHT22;55808;48.112;11.552;2023-01-31T17:30:16;3.40;82.60
68813;DHT22;55808;48.112;11.552;2023-01-31T17:32:42;3.40;82.60
68813;DHT22;55808;48.112;11.552;2023-01-31T17:37:51;3.40;82.40
68813;DHT22;55808;48.112;11.552;2023-01-31T17:40:17;3.40;82.70
68813;DHT22;55808;48.112;11.552;2023-01-31T17:42:43;3.40;82.80
68813;DHT22;55808;48.112;11.552;2023-01-31T17:45:14;3.40;82.30
68813;DHT22;55808;48.112;11.552;2023-01-31T17:47:40;3.60;82.60
68813;DHT22;55808;48.112;11.552;2023-01-31T17:50:06;3.40;82.70
68813;DHT22;55808;48.112;11.552;2023-01-31T17:52:32;3.40;82.70
68813;DHT22;55808;48.112;11.552;2023-01-31T17:54:58;3.40;82.70
68813;DHT22;55808;48.112;11.552;2023-01-31T17:57:23;3.40;82.80
68813;DHT22;55808;48.112;11.552;2023-01-31T17:59:49;3.40;82.80
68813;DHT22;55808;48.112;11.552;2023-01-31T18:02:14;3.40;82.80
68813;DHT22;55808;48.112;11.552;2023-01-31T18:04:40;3.40;82.50
68813;DHT22;55808;48.112;11.552;2023-01-31T18:07:07;3.40;82.80
68813;DHT22;55808;48.112;11.552;2023-01-31T18:09:33;3.40;82.70
68813;DHT22;55808;48.112;11.552;2023-01-31T18:11:58;3.40;83.10
68813;DHT22;55808;48.112;11.552;2023-01-31T18:14:24;3.70;83.20
68813;DHT22;55808;48.112;11.552;2023-01-31T18:16:50;3.40;83.20
68813;DHT22;55808;48.112;11.552;2023-01-31T18:19:18;3.40;83.20
68813;DHT22;55808;48.112;11.552;2023-01-31T18:21:44;3.40;83.70
68813;DHT22;55808;48.112;11.552;2023-01-31T18:24:10;3.40;83.20
68813;DHT22;55808;48.112;11.552;2023-01-31T18:26:35;3.70;84.50
68813;DHT22;55808;48.112;11.552;2023-01-31T18:29:01;3.80;83.50